Time;durP1;ratioP1;P1;durP2;ratioP2;P2;SDS_P1;SDS_P2;PMS_P1;PMS_P2;Temp;Humidity;BMP_temperature;BMP_pressure;BME280_temperature;BME280_humidity;BME280_pressure;Samples;Min_cycle;Max_cycle;Signal;HPM_P1;HPM_P2
2021/04/28 00:00:12;;;;;;;1.73;1.13;;;21.20;45.60;;;;;;5015663;28;20733;-84
2021/04/28 00:02:38;;;;;;;2.57;1.27;;;21.30;45.60;;;;;;5001433;28;20234;-84
2021/04/28 00:05:09;;;;;;;1.00;0.90;;;21.30;45.50;;;;;;4999925;28;20451;-84
2021/04/28 00:07:37;;;;;;;6.07;1.00;;;21.30;45.40;;;;;;5000442;28;20227;-83
2021/04/28 00:10:08;;;;;;;1.27;1.10;;;21.30;45.40;;;;;;5002480;28;20258;-83
2021/04/28 00:12:35;;;;;;;2.23;1.13;;;21.30;45.30;;;;;;4999890;28;20238;-82
2021/04/28 00:15:07;;;;;;;1.90;0.90;;;21.30;45.20;;;;;;5003592;28;20357;-88
2021/04/28 00:17:34;;;;;;;1.60;1.10;;;21.30;45.20;;;;;;5001297;28;20239;-83
2021/04/28 00:20:00;;;;;;;4.43;1.00;;;21.40;45.10;;;;;;4991439;28;20818;-86
2021/04/28 00:22:26;;;;;;;1.57;1.00;;;21.40;45.20;;;;;;5001262;28;20250;-85
2021/04/28 00:24:53;;;;;;;1.10;1.00;;;21.40;44.80;;;;;;5000101;28;20230;-83
2021/04/28 00:27:19;;;;;;;2.80;1.07;;;21.40;45.00;;;;;;5002326;28;20230;-83
2021/04/28 00:29:59;;;;;;;1.00;1.00;;;21.50;45.00;;;;;;4995817;28;20311;-82
2021/04/28 00:32:25;;;;;;;1.20;1.10;;;21.50;45.20;;;;;;5009839;28;20225;-84
2021/04/28 00:34:52;;;;;;;2.10;1.33;;;21.50;45.10;;;;;;5007950;28;20226;-85
2021/04/28 00:37:18;;;;;;;0.90;0.90;;;21.50;44.60;;;;;;5004254;28;20231;-83
2021/04/28 00:39:44;;;;;;;0.93;0.90;;;21.50;44.50;;;;;;5006642;28;20220;-86
2021/04/28 00:42:10;;;;;;;1.53;0.90;;;21.50;44.50;;;;;;5004724;28;20226;-83
2021/04/28 00:44:37;;;;;;;0.97;0.90;;;21.50;44.40;;;;;;5013788;28;20707;-84
2021/04/28 00:47:04;;;;;;;4.10;1.23;;;21.60;44.50;;;;;;5007254;28;20277;-83
2021/04/28 00:49:31;;;;;;;3.90;1.30;;;21.50;44.60;;;;;;5006793;28;20223;-83
2021/04/28 00:51:57;;;;;;;1.37;1.27;;;21.50;44.70;;;;;;4991039;28;20241;-84
2021/04/28 00:54:24;;;;;;;1.50;1.03;;;21.50;44.40;;;;;;5017958;28;20238;-84
2021/04/28 00:56:55;;;;;;;1.17;1.07;;;21.60;44.50;;;;;;4988857;28;20231;-85
2021/04/28 00:59:23;;;;;;;1.30;1.20;;;21.50;44.50;;;;;;5005335;28;20526;-85
2021/04/28 01:01:50;;;;;;;1.50;1.03;;;21.50;44.40;;;;;;5006138;28;20227;-86
2021/04/28 01:04:17;;;;;;;2.63;1.27;;;21.50;44.40;;;;;;5005525;28;20924;-91
2021/04/28 01:06:45;;;;;;;1.93;1.30;;;21.60;44.40;;;;;;5003956;28;20238;-88
2021/04/28 01:09:13;;;;;;;2.20;1.20;;;21.60;44.40;;;;;;5005772;28;20235;-86
2021/04/28 01:11:40;;;;;;;2.27;1.13;;;21.60;44.30;;;;;;5005185;28;20226;-86
2021/04/28 01:14:07;;;;;;;1.50;1.20;;;21.60;44.20;;;;;;5005457;28;20226;-83
2021/04/28 01:16:35;;;;;;;1.87;1.20;;;21.60;44.10;;;;;;5002256;28;20735;-83
2021/04/28 01:19:06;;;;;;;10.70;1.40;;;21.70;44.10;;;;;;5005128;28;20227;-84
2021/04/28 01:21:33;;;;;;;1.30;1.20;;;21.60;43.90;;;;;;4999950;28;20228;-91
2021/04/28 01:24:00;;;;;;;1.70;1.30;;;21.60;43.90;;;;;;5005487;28;20284;-87
2021/04/28 01:26:30;;;;;;;1.33;1.23;;;21.60;43.30;;;;;;4991724;28;20227;-86
2021/04/28 01:29:00;;;;;;;1.60;1.30;;;21.50;43.10;;;;;;4981052;28;20257;-86
2021/04/28 01:31:29;;;;;;;2.50;1.13;;;21.50;42.80;;;;;;5007298;28;20234;-86
2021/04/28 01:34:03;;;;;;;2.17;1.40;;;21.30;42.80;;;;;;4995452;28;20261;-86
2021/04/28 01:36:41;;;;;;;1.20;1.10;;;21.30;42.70;;;;;;5001196;28;20228;-87
2021/04/28 01:39:13;;;;;;;1.17;1.07;;;21.30;42.80;;;;;;4994256;28;20755;-86
2021/04/28 01:41:43;;;;;;;1.53;1.20;;;21.30;42.90;;;;;;4997667;28;20656;-87
2021/04/28 01:44:12;;;;;;;1.23;1.10;;;21.20;42.90;;;;;;5006165;28;20577;-87
2021/04/28 01:46:40;;;;;;;3.73;1.10;;;21.20;43.00;;;;;;5005352;28;20230;-87
2021/04/28 01:49:07;;;;;;;1.57;1.00;;;21.10;42.90;;;;;;4995439;28;20223;-89
2021/04/28 01:51:35;;;;;;;2.23;1.37;;;21.10;43.10;;;;;;4986672;28;20221;-88
2021/04/28 01:54:08;;;;;;;1.50;1.10;;;21.00;43.00;;;;;;5015917;28;20714;-87
2021/04/28 01:56:36;;;;;;;1.57;1.30;;;21.00;43.10;;;;;;5006712;28;20219;-88
2021/04/28 01:59:04;;;;;;;1.40;1.00;;;21.00;43.00;;;;;;5011607;28;20235;-88
2021/04/28 02:01:36;;;;;;;1.97;1.37;;;21.00;43.10;;;;;;4991347;28;20237;-87
2021/04/28 02:04:08;;;;;;;1.87;1.20;;;21.00;43.10;;;;;;4990898;28;20230;-87
2021/04/28 02:06:39;;;;;;;1.40;1.10;;;20.90;43.20;;;;;;5003369;28;20259;-87
2021/04/28 02:09:08;;;;;;;1.73;1.50;;;20.90;43.30;;;;;;4998700;28;20242;-87
2021/04/28 02:11:37;;;;;;;1.93;1.30;;;20.80;43.30;;;;;;5004081;28;20222;-85
2021/04/28 02:14:05;;;;;;;1.47;1.30;;;20.80;43.30;;;;;;5010066;28;20276;-89
2021/04/28 02:16:37;;;;;;;1.63;1.40;;;20.80;43.30;;;;;;5005770;28;20223;-89
2021/04/28 02:19:06;;;;;;;2.43;1.40;;;20.70;43.30;;;;;;4994822;28;20660;-88
2021/04/28 02:21:33;;;;;;;2.17;1.57;;;20.70;43.40;;;;;;5002040;28;20231;-88
2021/04/28 02:24:00;;;;;;;1.67;1.40;;;20.70;43.40;;;;;;4996741;28;20601;-89
2021/04/28 02:26:27;;;;;;;2.60;1.37;;;20.60;43.40;;;;;;5019328;28;20747;-88
2021/04/28 02:28:53;;;;;;;2.10;1.70;;;20.60;43.40;;;;;;5003215;28;20322;-88
2021/04/28 02:31:19;;;;;;;1.80;1.17;;;20.60;43.40;;;;;;5004554;28;20238;-89
2021/04/28 02:33:46;;;;;;;2.80;1.80;;;20.60;43.50;;;;;;5003606;28;20215;-87
2021/04/28 02:36:14;;;;;;;1.93;1.40;;;20.50;43.50;;;;;;5005599;28;20258;-87
2021/04/28 02:38:46;;;;;;;1.83;1.40;;;20.50;43.50;;;;;;5012812;28;20599;-87
2021/04/28 02:41:15;;;;;;;1.67;1.57;;;20.50;43.60;;;;;;5020124;28;20246;-88
2021/04/28 02:43:42;;;;;;;1.73;1.40;;;20.50;43.60;;;;;;5004867;28;20282;-88
2021/04/28 02:46:13;;;;;;;2.43;2.00;;;20.40;43.60;;;;;;5004448;28;20227;-88
2021/04/28 02:48:42;;;;;;;2.60;1.70;;;20.40;43.60;;;;;;5004936;28;20234;-88
2021/04/28 02:51:09;;;;;;;1.90;1.53;;;20.40;43.70;;;;;;4994866;28;20294;-88
2021/04/28 02:53:36;;;;;;;2.20;1.67;;;20.30;43.70;;;;;;5008594;28;21242;-87
2021/04/28 02:56:03;;;;;;;1.90;1.30;;;20.30;43.80;;;;;;5007235;28;20625;-87
2021/04/28 02:58:30;;;;;;;1.90;1.40;;;20.30;43.80;;;;;;5003965;28;20238;-87
2021/04/28 03:00:58;;;;;;;2.93;1.43;;;20.20;43.70;;;;;;5003630;28;20230;-87
2021/04/28 03:03:25;;;;;;;2.27;1.40;;;20.20;43.80;;;;;;4995764;28;20692;-87
2021/04/28 03:05:52;;;;;;;2.30;1.73;;;20.20;43.90;;;;;;4995445;28;20626;-87
2021/04/28 03:08:20;;;;;;;1.53;1.43;;;20.20;43.90;;;;;;5001361;28;20764;-86
2021/04/28 03:10:51;;;;;;;1.90;1.77;;;20.20;44.00;;;;;;5009027;28;21724;-86
2021/04/28 03:13:19;;;;;;;2.40;1.53;;;20.10;43.90;;;;;;5004498;28;20246;-87
2021/04/28 03:15:49;;;;;;;2.07;1.70;;;20.10;44.00;;;;;;5004957;28;20250;-87
2021/04/28 03:18:16;;;;;;;5.73;1.60;;;20.10;43.90;;;;;;5004443;28;20227;-87
2021/04/28 03:20:47;;;;;;;3.43;1.80;;;20.10;44.00;;;;;;5012058;28;20223;-87
2021/04/28 03:23:15;;;;;;;2.43;1.57;;;20.10;44.00;;;;;;5001986;28;20239;-87
2021/04/28 03:25:42;;;;;;;2.67;1.70;;;20.10;44.00;;;;;;5005612;28;20223;-87
2021/04/28 03:28:09;;;;;;;2.53;1.80;;;20.10;44.10;;;;;;5003936;28;20242;-87
2021/04/28 03:30:36;;;;;;;2.07;1.73;;;20.00;44.60;;;;;;5005650;28;20211;-87
2021/04/28 03:33:03;;;;;;;2.87;2.00;;;20.00;44.00;;;;;;5005090;28;20238;-87
2021/04/28 03:35:29;;;;;;;2.23;1.73;;;20.00;44.10;;;;;;5005626;28;20227;-87
2021/04/28 03:37:55;;;;;;;1.80;1.50;;;19.90;44.00;;;;;;4985266;28;20223;-87
2021/04/28 03:40:22;;;;;;;1.70;1.60;;;20.00;44.10;;;;;;5001211;28;20223;-87
2021/04/28 03:42:48;;;;;;;2.00;1.80;;;20.00;44.10;;;;;;5005379;28;20743;-87
2021/04/28 03:45:14;;;;;;;2.23;1.73;;;19.90;44.10;;;;;;5005824;28;20230;-86
2021/04/28 03:47:43;;;;;;;1.97;1.70;;;19.90;44.10;;;;;;4995996;28;20691;-88
2021/04/28 03:50:10;;;;;;;3.10;1.70;;;19.80;44.10;;;;;;5003506;28;20219;-88
2021/04/28 03:52:38;;;;;;;2.37;1.60;;;19.90;44.20;;;;;;4995112;28;20227;-88
2021/04/28 03:55:09;;;;;;;2.03;1.80;;;19.80;44.10;;;;;;5004071;28;20220;-86
2021/04/28 03:57:35;;;;;;;1.80;1.50;;;19.80;44.10;;;;;;5000392;28;20224;-87
2021/04/28 04:00:05;;;;;;;1.90;1.67;;;19.80;44.20;;;;;;5003691;28;20602;-87
2021/04/28 04:02:32;;;;;;;2.10;1.70;;;19.80;44.20;;;;;;5011201;28;20293;-87
2021/04/28 04:04:59;;;;;;;2.33;1.70;;;19.80;44.30;;;;;;5001377;28;20235;-87
2021/04/28 04:07:26;;;;;;;3.47;1.80;;;19.80;44.20;;;;;;5008188;28;20223;-87
2021/04/28 04:09:53;;;;;;;1.87;1.40;;;19.70;44.30;;;;;;5004400;28;20237;-86
2021/04/28 04:12:19;;;;;;;3.00;1.43;;;19.80;44.40;;;;;;5014869;28;20215;-87
2021/04/28 04:14:46;;;;;;;1.63;1.53;;;19.70;44.40;;;;;;5003719;28;20242;-86
2021/04/28 04:17:12;;;;;;;1.50;1.40;;;19.70;44.40;;;;;;5004377;28;20231;-87
2021/04/28 04:19:38;;;;;;;1.93;1.40;;;19.70;44.50;;;;;;5005122;28;20239;-88
2021/04/28 04:22:05;;;;;;;2.07;1.70;;;19.60;44.40;;;;;;5004321;28;20601;-87
2021/04/28 04:24:31;;;;;;;1.97;1.60;;;19.70;44.60;;;;;;4992332;28;20278;-86
2021/04/28 04:26:58;;;;;;;2.07;1.67;;;19.70;44.60;;;;;;5020254;28;20227;-87
2021/04/28 04:29:24;;;;;;;2.53;1.70;;;19.70;44.60;;;;;;5005057;28;20226;-87
2021/04/28 04:31:50;;;;;;;1.77;1.63;;;19.60;44.60;;;;;;5004552;28;20230;-87
2021/04/28 04:34:17;;;;;;;2.87;1.53;;;19.70;44.60;;;;;;5003725;28;20687;-87
2021/04/28 04:36:43;;;;;;;2.57;1.33;;;19.60;44.60;;;;;;5004558;28;20226;-87
2021/04/28 04:39:09;;;;;;;1.67;1.50;;;19.60;44.60;;;;;;5004445;28;20817;-87
2021/04/28 04:41:36;;;;;;;1.80;1.60;;;19.60;44.60;;;;;;4999213;28;20249;-88
2021/04/28 04:44:02;;;;;;;2.13;1.90;;;19.60;44.60;;;;;;4988455;28;20216;-87
2021/04/28 04:46:29;;;;;;;2.07;1.87;;;19.60;44.60;;;;;;4995910;28;20494;-88
2021/04/28 04:48:56;;;;;;;2.63;1.90;;;19.60;44.70;;;;;;5001029;28;20297;-86
2021/04/28 04:51:22;;;;;;;2.00;1.57;;;19.60;44.70;;;;;;5005152;28;20668;-87
2021/04/28 04:53:49;;;;;;;1.90;1.70;;;19.50;44.60;;;;;;5004337;28;20211;-86
2021/04/28 04:56:15;;;;;;;1.70;1.53;;;19.50;44.60;;;;;;4987807;28;20220;-86
2021/04/28 04:58:41;;;;;;;2.33;1.60;;;19.50;44.60;;;;;;5002355;28;20224;-86
2021/04/28 05:01:08;;;;;;;1.60;1.50;;;19.50;44.70;;;;;;5004365;28;20692;-86
2021/04/28 05:03:39;;;;;;;3.47;2.03;;;19.50;44.60;;;;;;5001849;28;20224;-87
2021/04/28 05:06:05;;;;;;;2.53;1.90;;;19.50;44.60;;;;;;5004754;28;20254;-88
2021/04/28 05:08:31;;;;;;;1.70;1.60;;;19.50;44.60;;;;;;4998521;28;20235;-86
2021/04/28 05:10:58;;;;;;;2.17;1.40;;;19.50;44.60;;;;;;5002176;28;20270;-86
2021/04/28 05:13:24;;;;;;;2.83;1.73;;;19.50;44.60;;;;;;4994207;28;20238;-88
2021/04/28 05:15:50;;;;;;;1.70;1.60;;;19.50;44.60;;;;;;5002462;28;20250;-88
2021/04/28 05:18:17;;;;;;;2.60;1.60;;;19.50;44.60;;;;;;4998610;28;20236;-88
2021/04/28 05:20:46;;;;;;;2.70;1.97;;;19.50;44.70;;;;;;5009023;28;20224;-86
2021/04/28 05:23:12;;;;;;;2.13;1.70;;;19.40;44.70;;;;;;4999494;28;20251;-86
2021/04/28 05:25:39;;;;;;;1.90;1.70;;;19.40;44.60;;;;;;5004587;28;20224;-87
2021/04/28 05:28:05;;;;;;;1.90;1.60;;;19.40;44.60;;;;;;5008579;28;20224;-86
2021/04/28 05:30:31;;;;;;;2.37;1.73;;;19.50;44.80;;;;;;5008459;28;20224;-86
2021/04/28 05:32:58;;;;;;;2.17;1.67;;;19.40;44.70;;;;;;5003638;28;20314;-86
2021/04/28 05:35:27;;;;;;;3.57;1.50;;;19.40;44.70;;;;;;5007528;28;20262;-86
2021/04/28 05:37:57;;;;;;;2.07;1.40;;;19.40;44.70;;;;;;5006853;28;20220;-84
2021/04/28 05:40:27;;;;;;;1.90;1.50;;;19.40;44.70;;;;;;4997037;28;20293;-86
2021/04/28 05:42:53;;;;;;;1.93;1.43;;;19.40;44.70;;;;;;5010491;28;20219;-84
2021/04/28 05:45:19;;;;;;;2.23;1.80;;;19.40;44.60;;;;;;5007176;28;20215;-86
2021/04/28 05:47:46;;;;;;;1.87;1.63;;;19.40;44.50;;;;;;5003087;28;20243;-87
2021/04/28 05:50:16;;;;;;;1.97;1.80;;;19.40;44.50;;;;;;5007763;28;20234;-88
2021/04/28 05:52:45;;;;;;;2.60;2.10;;;19.40;44.40;;;;;;5007789;28;20711;-84
2021/04/28 05:55:13;;;;;;;2.20;1.90;;;19.40;44.30;;;;;;5010656;28;20563;-85
2021/04/28 05:57:42;;;;;;;14.87;4.43;;;19.40;44.20;;;;;;5013076;28;20215;-87
2021/04/28 06:00:12;;;;;;;9.63;3.33;;;19.40;44.70;;;;;;5011721;28;20249;-82
2021/04/28 06:02:43;;;;;;;7.47;3.33;;;19.30;44.40;;;;;;5014171;28;20255;-86
2021/04/28 06:05:11;;;;;;;10.90;4.63;;;19.30;44.60;;;;;;4995434;28;20386;-81
2021/04/28 06:07:39;;;;;;;20.03;6.03;;;19.30;44.60;;;;;;5002452;28;20227;-83
2021/04/28 06:10:06;;;;;;;14.00;4.90;;;19.40;45.10;;;;;;5000497;28;20232;-83
2021/04/28 06:12:33;;;;;;;18.53;5.60;;;19.40;45.00;;;;;;5009660;28;20227;-81
2021/04/28 06:15:02;;;;;;;12.17;4.73;;;19.50;44.90;;;;;;4995448;28;20318;-81
2021/04/28 06:17:34;;;;;;;13.57;4.83;;;19.60;44.60;;;;;;4990707;28;20219;-82
2021/04/28 06:20:05;;;;;;;11.17;5.30;;;19.60;44.50;;;;;;4995288;28;20723;-82
2021/04/28 06:22:32;;;;;;;12.47;4.40;;;19.60;44.40;;;;;;4997422;28;20234;-89
2021/04/28 06:24:58;;;;;;;12.97;4.20;;;19.70;44.10;;;;;;5003336;28;20825;-86
2021/04/28 06:27:27;;;;;;;9.50;4.80;;;19.70;44.10;;;;;;5009728;28;20228;-85
2021/04/28 06:29:54;;;;;;;8.43;3.90;;;19.70;44.00;;;;;;5002234;28;20219;-85
2021/04/28 06:32:27;;;;;;;11.50;4.43;;;19.70;44.00;;;;;;4964580;28;20243;-84
2021/04/28 06:34:58;;;;;;;9.53;3.83;;;19.70;43.90;;;;;;5004695;28;20222;-85
2021/04/28 06:37:27;;;;;;;8.87;4.10;;;19.70;43.80;;;;;;5010001;28;20812;-84
2021/04/28 06:39:53;;;;;;;11.67;3.93;;;19.70;43.70;;;;;;5001869;28;20602;-85
2021/04/28 06:42:20;;;;;;;21.87;5.47;;;19.80;43.90;;;;;;5002982;28;20231;-82
2021/04/28 06:44:47;;;;;;;21.43;6.47;;;19.80;44.60;;;;;;5004735;28;20226;-81
2021/04/28 06:47:15;;;;;;;21.93;5.20;;;19.90;45.20;;;;;;5006268;28;20227;-80
2021/04/28 06:49:42;;;;;;;19.03;5.53;;;20.00;46.20;;;;;;5004087;28;20239;-81
2021/04/28 06:52:08;;;;;;;19.00;5.93;;;20.10;46.60;;;;;;5005926;28;20238;-80
2021/04/28 06:54:35;;;;;;;14.63;5.27;;;20.20;46.90;;;;;;4994356;28;20234;-81
2021/04/28 06:57:01;;;;;;;13.33;5.10;;;20.30;46.80;;;;;;5005888;28;20282;-81
2021/04/28 06:59:30;;;;;;;12.83;5.20;;;20.40;46.80;;;;;;5003850;28;20219;-85
2021/04/28 07:01:56;;;;;;;17.60;5.70;;;20.40;46.70;;;;;;5001171;28;20231;-79
2021/04/28 07:04:23;;;;;;;20.17;6.93;;;20.40;45.00;;;;;;5000237;28;20227;-81
2021/04/28 07:06:50;;;;;;;15.93;5.63;;;20.50;47.50;;;;;;5003122;28;20220;-81
2021/04/28 07:09:17;;;;;;;17.07;4.53;;;20.60;48.00;;;;;;4994901;28;20247;-82
2021/04/28 07:11:44;;;;;;;16.70;5.10;;;20.70;47.20;;;;;;5004603;28;20227;-81
2021/04/28 07:14:10;;;;;;;10.07;5.03;;;20.80;47.30;;;;;;5000445;28;20231;-81
2021/04/28 07:16:37;;;;;;;10.23;4.17;;;20.90;47.60;;;;;;5002553;28;20223;-81
2021/04/28 07:19:03;;;;;;;9.97;4.50;;;21.00;47.30;;;;;;4999115;28;20228;-81
2021/04/28 07:21:31;;;;;;;12.00;4.03;;;21.10;47.40;;;;;;5001241;28;20250;-81
2021/04/28 07:24:00;;;;;;;11.10;4.37;;;21.10;47.20;;;;;;5001223;28;20230;-80
2021/04/28 07:26:28;;;;;;;13.10;4.20;;;21.20;47.10;;;;;;5003101;28;20219;-82
2021/04/28 07:28:54;;;;;;;10.43;3.83;;;21.20;47.00;;;;;;5001601;28;20560;-80
2021/04/28 07:31:21;;;;;;;13.00;4.33;;;21.20;47.20;;;;;;5003553;28;23456;-82
2021/04/28 07:33:47;;;;;;;14.07;4.53;;;21.30;47.20;;;;;;5002766;28;20227;-82
2021/04/28 07:36:14;;;;;;;13.97;4.27;;;21.40;47.00;;;;;;4999015;28;20706;-82
2021/04/28 07:38:41;;;;;;;6.50;3.77;;;21.40;47.00;;;;;;5001941;28;20600;-82
2021/04/28 07:41:07;;;;;;;9.67;3.83;;;21.50;46.90;;;;;;5002123;28;20238;-83
2021/04/28 07:43:34;;;;;;;7.13;3.90;;;21.50;46.50;;;;;;5000083;28;20215;-85
2021/04/28 07:46:00;;;;;;;8.87;3.03;;;21.50;46.50;;;;;;5001371;28;20227;-82
2021/04/28 07:48:27;;;;;;;5.93;3.50;;;21.60;46.60;;;;;;5000690;28;20234;-82
2021/04/28 07:50:57;;;;;;;11.73;3.40;;;21.60;46.10;;;;;;5002283;28;20236;-81
2021/04/28 07:53:26;;;;;;;6.67;3.30;;;21.70;46.70;;;;;;5000285;28;20599;-81
2021/04/28 07:55:52;;;;;;;8.07;3.87;;;21.80;46.30;;;;;;5002277;28;20223;-82
2021/04/28 07:58:19;;;;;;;5.97;3.50;;;21.80;46.20;;;;;;5000713;28;20245;-81
2021/04/28 08:00:46;;;;;;;6.73;3.30;;;21.80;46.00;;;;;;5001569;28;20235;-82
2021/04/28 08:03:12;;;;;;;6.77;3.30;;;21.90;46.20;;;;;;4998247;28;20424;-84
2021/04/28 08:05:39;;;;;;;5.43;2.80;;;21.90;46.00;;;;;;5004189;28;20235;-85
2021/04/28 08:08:06;;;;;;;7.77;3.10;;;21.90;46.40;;;;;;5002711;28;20219;-84
2021/04/28 08:10:33;;;;;;;7.47;3.07;;;22.00;46.20;;;;;;5000464;28;20224;-84
2021/04/28 08:13:08;;;;;;;5.33;3.20;;;22.00;46.50;;;;;;5004398;28;20219;-84
2021/04/28 08:15:36;;;;;;;7.00;3.00;;;22.00;46.00;;;;;;5000057;28;20304;-85
2021/04/28 08:18:03;;;;;;;3.73;2.70;;;22.10;46.00;;;;;;5005365;28;20223;-84
2021/04/28 08:20:29;;;;;;;6.37;3.00;;;22.10;46.00;;;;;;5006604;28;20235;-84
2021/04/28 08:22:56;;;;;;;7.27;3.33;;;22.10;46.40;;;;;;5009576;28;20226;-83
2021/04/28 08:25:23;;;;;;;7.03;2.70;;;22.20;46.20;;;;;;5002724;28;20697;-83
2021/04/28 08:27:49;;;;;;;4.53;2.60;;;22.20;46.60;;;;;;5002780;28;20247;-83
2021/04/28 08:30:20;;;;;;;5.37;2.90;;;22.30;46.80;;;;;;5004574;28;20230;-85
2021/04/28 08:32:56;;;;;;;10.37;3.53;;;22.30;46.40;;;;;;4993558;28;20224;-81
2021/04/28 08:35:23;;;;;;;5.83;3.03;;;22.30;46.60;;;;;;5004485;28;20265;-81
2021/04/28 08:37:49;;;;;;;4.77;3.00;;;22.40;46.60;;;;;;4990834;28;20224;-81
2021/04/28 08:40:18;;;;;;;5.47;3.37;;;22.40;46.40;;;;;;5003657;28;20715;-82
2021/04/28 08:42:44;;;;;;;4.67;3.20;;;22.40;46.50;;;;;;4992345;28;20223;-81
2021/04/28 08:45:11;;;;;;;4.57;2.83;;;22.50;46.20;;;;;;5003081;28;20211;-81
2021/04/28 08:47:39;;;;;;;7.60;3.37;;;22.50;46.40;;;;;;5002232;28;20734;-83
2021/04/28 08:50:07;;;;;;;6.30;2.97;;;22.60;46.60;;;;;;5005829;28;20595;-81
2021/04/28 08:52:35;;;;;;;7.87;3.20;;;22.60;46.60;;;;;;5007849;28;20232;-81
2021/04/28 08:55:02;;;;;;;8.07;3.17;;;22.60;46.00;;;;;;5008298;28;20743;-82
2021/04/28 08:57:29;;;;;;;3.87;2.83;;;22.60;46.30;;;;;;5013224;28;20285;-81
2021/04/28 09:00:00;;;;;;;7.73;2.90;;;22.70;46.90;;;;;;5001701;28;20222;-82
2021/04/28 09:02:27;;;;;;;4.90;2.60;;;22.70;46.40;;;;;;5011425;28;20476;-85
2021/04/28 09:05:11;;;;;;;4.53;3.00;;;22.70;46.30;;;;;;5006840;28;20721;-82
2021/04/28 09:07:41;;;;;;;8.20;4.57;;;22.50;47.20;;;;;;5001638;28;20760;-85
2021/04/28 09:10:13;;;;;;;6.77;4.20;;;22.50;48.90;;;;;;5004636;28;20660;-82
2021/04/28 09:12:40;;;;;;;5.30;3.30;;;22.60;48.80;;;;;;5004335;28;20227;-81
2021/04/28 09:15:10;;;;;;;6.50;3.07;;;22.70;48.30;;;;;;5007412;28;20227;-85
2021/04/28 09:17:50;;;;;;;6.27;2.53;;;22.80;48.40;;;;;;4999751;28;20231;-83
2021/04/28 09:20:25;;;;;;;4.57;2.77;;;22.90;48.00;;;;;;5002960;28;20222;-85
2021/04/28 09:23:13;;;;;;;7.33;2.63;;;22.90;47.90;;;;;;5002756;28;20266;-84
2021/04/28 09:25:52;;;;;;;14.20;2.80;;;23.00;47.70;;;;;;4991590;28;20651;-85
2021/04/28 09:28:33;;;;;;;6.90;2.73;;;23.10;47.90;;;;;;4995804;28;20416;-84
2021/04/28 09:31:06;;;;;;;7.97;2.80;;;23.10;47.30;;;;;;4976085;28;21592;-83
2021/04/28 09:33:50;;;;;;;6.23;2.47;;;23.10;47.20;;;;;;5005403;28;20227;-81
2021/04/28 09:36:24;;;;;;;7.27;2.87;;;23.20;47.80;;;;;;5013528;28;20215;-82
2021/04/28 09:38:57;;;;;;;4.60;2.70;;;23.20;47.00;;;;;;5005482;28;20235;-81
2021/04/28 09:41:50;;;;;;;4.93;2.30;;;23.20;46.80;;;;;;5004678;28;21408;-82
2021/04/28 09:44:17;;;;;;;5.80;2.63;;;23.30;46.60;;;;;;5005718;28;20223;-81
2021/04/28 09:47:00;;;;;;;5.57;3.13;;;23.30;46.90;;;;;;5007735;28;20231;-83
2021/04/28 09:49:48;;;;;;;5.43;2.60;;;23.30;46.50;;;;;;5004535;28;20646;-81
2021/04/28 09:52:19;;;;;;;5.63;2.63;;;23.40;46.60;;;;;;5009240;28;20718;-81
2021/04/28 09:54:47;;;;;;;4.33;2.67;;;23.40;46.60;;;;;;5001742;28;20302;-82
2021/04/28 09:57:18;;;;;;;3.63;2.40;;;23.40;46.30;;;;;;5006822;28;20238;-83
2021/04/28 09:59:50;;;;;;;3.73;2.67;;;23.50;46.50;;;;;;4990349;28;20703;-82
2021/04/28 10:02:24;;;;;;;6.63;2.73;;;23.50;46.50;;;;;;5005414;28;20598;-84
2021/04/28 10:04:52;;;;;;;4.20;2.40;;;23.50;46.80;;;;;;5005627;28;20231;-81
2021/04/28 10:07:26;;;;;;;4.00;2.73;;;23.50;46.10;;;;;;5004681;28;20995;-81
2021/04/28 10:09:54;;;;;;;5.50;2.50;;;23.60;46.30;;;;;;5005246;28;20646;-87
2021/04/28 10:12:21;;;;;;;3.73;2.50;;;23.70;45.80;;;;;;5009341;28;20234;-82
2021/04/28 10:14:48;;;;;;;3.23;2.20;;;23.30;46.30;;;;;;5006570;28;20683;-81
2021/04/28 10:17:17;;;;;;;4.03;2.50;;;23.10;47.60;;;;;;5005998;28;20239;-83
2021/04/28 10:19:56;;;;;;;;;;;;;;;;;;;;;
2021/04/28 10:22:23;;;;;;;2.97;2.43;;;22.90;49.00;;;;;;4996098;28;20627;-82
2021/04/28 10:24:54;;;;;;;4.00;2.33;;;22.90;49.50;;;;;;5005531;28;20672;-82
2021/04/28 10:27:21;;;;;;;2.53;2.23;;;22.80;49.50;;;;;;4998531;28;20628;-84
2021/04/28 10:29:51;;;;;;;4.70;2.50;;;22.70;49.30;;;;;;5009767;28;21087;-85
2021/04/28 10:32:19;;;;;;;3.80;2.60;;;22.70;49.30;;;;;;4999032;28;20231;-82
2021/04/28 10:35:09;;;;;;;3.27;2.33;;;22.70;49.30;;;;;;4996614;28;20231;-83
2021/04/28 10:37:37;;;;;;;3.67;2.57;;;22.70;49.90;;;;;;4969277;28;20219;-83
2021/04/28 10:40:15;;;;;;;4.63;2.80;;;22.60;50.00;;;;;;5006508;28;20222;-84
2021/04/28 10:42:43;;;;;;;2.70;2.30;;;22.60;50.00;;;;;;4982595;28;20279;-85
2021/04/28 10:45:23;;;;;;;3.13;2.30;;;22.60;50.10;;;;;;5006394;28;20239;-82
2021/04/28 10:47:54;;;;;;;3.23;2.50;;;22.60;50.20;;;;;;4996834;28;20234;-84
2021/04/28 10:50:43;;;;;;;5.97;2.90;;;22.50;50.10;;;;;;4999161;28;20751;-84
2021/04/28 10:53:17;;;;;;;3.60;2.67;;;22.60;50.20;;;;;;5001134;28;20666;-84
2021/04/28 10:55:45;;;;;;;3.87;2.57;;;22.50;50.20;;;;;;5004193;28;20230;-84
2021/04/28 10:58:27;;;;;;;3.80;2.70;;;22.50;50.30;;;;;;5003924;28;20231;-84
2021/04/28 11:01:00;;;;;;;2.93;2.30;;;22.50;50.80;;;;;;4991841;28;20600;-83
2021/04/28 11:03:39;;;;;;;4.10;2.33;;;22.60;50.40;;;;;;4997937;28;20220;-82
2021/04/28 11:06:20;;;;;;;3.80;2.70;;;22.50;50.50;;;;;;4992271;28;20223;-82
2021/04/28 11:09:10;;;;;;;3.33;2.67;;;22.60;50.50;;;;;;4995474;28;20657;-82
2021/04/28 11:11:39;;;;;;;5.00;2.63;;;22.50;50.20;;;;;;4988260;28;20236;-83
2021/04/28 11:14:11;;;;;;;4.20;3.20;;;22.50;50.00;;;;;;5001584;28;20284;-83
2021/04/28 11:17:13;;;;;;;3.87;2.80;;;22.50;49.80;;;;;;5005588;28;20220;-84
2021/04/28 11:19:40;;;;;;;3.57;2.70;;;22.50;50.00;;;;;;5010748;28;20231;-84
2021/04/28 11:22:21;;;;;;;3.93;2.70;;;22.50;49.90;;;;;;5003033;28;20230;-86
2021/04/28 11:24:54;;;;;;;5.17;2.70;;;22.50;50.00;;;;;;4995559;28;20238;-82
2021/04/28 11:27:45;;;;;;;3.70;2.43;;;22.60;51.30;;;;;;5004094;28;20611;-82
2021/04/28 11:30:29;;;;;;;4.07;2.40;;;22.60;50.90;;;;;;4985664;28;21316;-82
2021/04/28 11:33:07;;;;;;;3.50;2.33;;;22.70;51.30;;;;;;4997588;28;20239;-85
2021/04/28 11:35:34;;;;;;;2.93;2.33;;;22.80;51.20;;;;;;5016253;28;20234;-80
2021/04/28 11:38:12;;;;;;;3.03;2.40;;;22.80;50.80;;;;;;4998804;28;20223;-80
2021/04/28 11:41:08;;;;;;;10.00;2.63;;;22.80;50.90;;;;;;5003834;28;20326;-80
2021/04/28 11:43:48;;;;;;;3.43;2.60;;;22.90;51.20;;;;;;4983848;28;20238;-81
2021/04/28 11:46:33;;;;;;;4.67;1.90;;;22.90;50.80;;;;;;4974667;28;20231;-82
2021/04/28 11:49:21;;;;;;;3.30;2.37;;;22.90;50.90;;;;;;4973923;28;20219;-83
2021/04/28 12:01:31;;;;;;;2.50;2.00;;;23.00;49.60;;;;;;4963562;28;20240;-83
2021/04/28 12:11:00;;;;;;;3.07;2.30;;;22.90;49.10;;;;;;4837709;29;20217;-85
2021/04/28 12:13:51;;;;;;;7.70;2.50;;;22.90;48.60;;;;;;4839686;29;20212;-90
2021/04/28 12:16:19;;;;;;;4.93;2.60;;;22.90;49.20;;;;;;4880714;29;20254;-87
2021/04/28 12:18:47;;;;;;;16.57;2.80;;;22.90;49.80;;;;;;4898409;29;20582;-85
2021/04/28 12:21:13;;;;;;;15.43;2.60;;;23.00;50.50;;;;;;4904854;29;20442;-86
2021/04/28 12:23:40;;;;;;;9.33;2.93;;;23.00;50.00;;;;;;4877189;29;20246;-84
2021/04/28 12:26:11;;;;;;;5.27;2.87;;;23.00;48.70;;;;;;4894743;29;20230;-83
2021/04/28 12:28:49;;;;;;;3.07;2.53;;;23.00;48.40;;;;;;4901072;29;20239;-83
2021/04/28 12:31:15;;;;;;;3.80;2.37;;;23.00;48.20;;;;;;4896622;29;20226;-83
2021/04/28 12:33:42;;;;;;;4.67;2.50;;;23.00;48.10;;;;;;4906866;29;20243;-83
2021/04/28 12:36:10;;;;;;;3.17;2.47;;;23.00;48.00;;;;;;4931804;28;20224;-83
2021/04/28 12:38:43;;;;;;;3.33;2.50;;;23.00;48.10;;;;;;4946096;28;20319;-83
2021/04/28 12:41:11;;;;;;;2.90;2.20;;;23.00;48.00;;;;;;5004511;28;20614;-83
2021/04/28 12:43:38;;;;;;;2.80;1.97;;;23.00;47.90;;;;;;5000194;28;20231;-82
2021/04/28 12:46:15;;;;;;;2.27;2.07;;;23.00;48.00;;;;;;5002264;28;20233;-83
2021/04/28 12:48:54;;;;;;;3.47;2.20;;;23.10;48.10;;;;;;4991152;28;20238;-83
2021/04/28 12:51:23;;;;;;;3.23;2.30;;;23.10;47.70;;;;;;5006773;28;20246;-83
2021/04/28 12:53:50;;;;;;;2.00;1.80;;;23.00;47.70;;;;;;4994186;28;20227;-83
2021/04/28 12:56:17;;;;;;;3.23;2.20;;;23.10;47.80;;;;;;5006146;28;20236;-83
2021/04/28 12:58:52;;;;;;;2.80;2.50;;;23.10;47.70;;;;;;5009076;28;20566;-83
2021/04/28 13:01:23;;;;;;;4.23;3.83;;;23.10;47.40;;;;;;5006452;28;20231;-84
2021/04/28 13:03:50;;;;;;;3.17;2.50;;;23.10;50.10;;;;;;5007636;28;20629;-84
2021/04/28 13:06:22;;;;;;;3.00;2.40;;;23.30;48.30;;;;;;5008883;28;20219;-84
2021/04/28 13:08:50;;;;;;;3.03;2.37;;;23.50;48.30;;;;;;5005806;28;20541;-85
2021/04/28 13:11:22;;;;;;;2.40;2.20;;;23.70;48.20;;;;;;5000505;28;20258;-85
2021/04/28 13:13:54;;;;;;;3.80;2.20;;;23.80;47.80;;;;;;5002201;28;20234;-84